Huvudsida
METAR-TAF:

METAR-TAF

Flygplatser :

Luganos flygplats

Lugano, Schweiz

latitud: 46-00N, longitud: 008-58E, höjd: 273 m

Aktuellt väderrapport

Denna rapport gjordes för 21 minuter sedan, klockan 00:20 UTC
Vind 3 kt från nord/nordost
Temperatur 12°C
Fuktighet 94%
Tryck 1023 hPa
Sikt 10 km eller mer
Få moln på en höjd av 900 ft
Mulet på en höjd av 2200 ft
lätt regn

METAR: LSZA 230020Z AUTO 02003KT 9999 -RA FEW009 OVC022 12/11 Q1023

Tid: 02:41 (00:41 UTC)

Väderprognos

Denna rapport gjordes för 10 timmar och 16 minuter sedan, klockan 14:25 UTC
Prognos gäller från 22 kl. 15 UTC till 22 kl. 24 UTC
Vind 2 kt från syd
Sikt 10 km eller mer
Mulet på en höjd av 5000 ft
Sannolikhet 30% :
Temporärt
från 22 kl. 17 UTC till 22 kl. 20 UTC
regn
Temporärt
från 22 kl. 20 UTC till 22 kl. 24 UTC
Sikt: 4500 m
regn

TAF: LSZA 221425Z 2215/2224 17002KT 9999 OVC050 PROB30 TEMPO 2217/2220 RA TEMPO 2220/2224 4500 RA

Aktuella väderrapporter och prognoser från 4000 flygplatser (METAR- och TAF-rapporter).

De tillgängliga stationerna syns som gula och röda prickar på kartan.

För musen över prickarna för att se namnen på stationerna.

Klicka sedan för att få väderrapporter och prognoser.

För att ändra kartan: Klicka på de gröna knapparna med ett svart kors på för att zooma in; den gröna knappen med ett streck på för att zooma ut; eller på de gröna pilarna för angränsande kartor.


METAR-TAF: